Latest Coastal Weather Observations for Mornington Island Airport

IDQ60701

Issued at 9:01 pm EST Saturday 22 July 2017 (issued every 10 minutes, with the page automatically refreshed every 10 minutes)

About coastal observations | Map of coastal stations | Coastal observations for QLD | Marine services | Other Formats
Station Details ID: 029182 Name: MORNINGTON ISLAND AIRPORT Lat: -16.66 Lon: 139.17 Height: 9.52 m
Data from the previous 72 hours. | See also: Recent months at Mornington Island Airport
Date/Time
EST
Temp
°C
Wind Pressure Rain since
9am
mm
Weather Cloud Vis
km
Sea
Height
m
Swell
Dir  Spd
kts
Gust
kts
hPa Trend Height
m
Period
s
Dir
22/09:00pm 20.5 E 5 5 1016.0 - 0.0 - - - - - - -
22/08:30pm 20.9 E 5 5 1015.6 - 0.0 - - - - - - -
22/08:00pm 21.8 E 5 5 1015.3 - 0.0 - - - - - - -
22/07:30pm 22.9 E 6 7 1014.9 - 0.0 - - - - - - -
22/07:00pm 23.9 E 7 9 1014.5 - 0.0 - - - - - - -
22/06:30pm 25.0 E 6 7 1014.3 - 0.0 - - - - - - -
22/06:00pm 25.9 ESE 7 9 1014.0 - 0.0 - - - - - - -
22/05:30pm 26.0 SE 7 10 1013.8 - 0.0 - - - - - - -
22/05:00pm 26.0 ESE 8 11 1013.7 - 0.0 - - - - - - -
22/04:30pm 25.5 SE 7 10 1013.9 - 0.0 - - - - - - -
22/04:00pm 25.3 SSE 8 11 1014.2 - 0.0 - - - - - - -
22/03:30pm 24.7 SSE 9 13 1014.3 - 0.0 - - - - - - -
22/03:00pm 25.2 SSE 9 14 1014.4 - 0.0 - - - - - - -
22/02:30pm 25.3 SSE 9 15 1014.8 - 0.0 - - - - - - -
22/02:00pm 24.6 SSE 11 16 1015.3 - 0.0 - - - - - - -
22/01:30pm 24.7 SSE 10 14 1015.7 - 0.0 - - - - - - -
22/01:00pm 24.3 SSE 11 16 1016.1 - 0.0 - - - - - - -
22/12:30pm 24.9 SE 12 17 1016.6 - 0.0 - - - - - - -
22/12:00pm 24.7 SE 13 20 1017.0 - 0.0 - - - - - - -
22/11:30am 24.4 SE 14 20 1017.2 - 0.0 - - - - - - -
22/11:00am 23.9 SE 14 20 1017.4 - 0.0 - - - - - - -
22/10:30am 23.7 SE 15 22 1017.6 - 0.0 - - - - - - -
22/10:00am 23.6 SE 12 17 1017.7 - 0.0 - - - - - - -
22/09:30am 22.9 SE 13 20 1017.5 - 0.0 - - - - - - -
22/09:00am 22.6 SE 13 19 1017.4 - 0.0 - - - - - - -
22/08:30am 22.6 SE 11 17 1017.2 - 0.0 - - - - - - -
22/08:00am 21.9 SE 11 17 1017.0 - 0.0 - - - - - - -
22/07:30am 21.7 SSE 11 17 1016.7 - 0.0 - - - - - - -
22/07:00am 21.6 SSE 10 15 1016.3 - 0.0 - - - - - - -
22/06:30am 21.7 SE 10 16 1015.9 - 0.0 - - - - - - -
22/06:00am 21.9 SE 10 16 1015.6 - 0.0 - - - - - - -
22/05:30am 21.9 SE 9 13 1015.4 - 0.0 - - - - - - -
22/05:00am 22.3 SSE 11 17 1015.3 - 0.0 - - - - - - -
22/04:30am 21.9 SE 8 13 1015.1 - 0.0 - - - - - - -
22/04:00am 21.5 SSE 6 8 1015.1 - 0.0 - - - - - - -
22/03:30am 21.6 SSE 7 10 1015.0 - 0.0 - - - - - - -
22/03:00am 21.5 SSE 7 10 1015.1 - 0.0 - - - - - - -
22/02:30am 21.4 SSE 7 9 1015.3 - 0.0 - - - - - - -
22/02:00am 21.3 SSE 6 9 1015.6 - 0.0 - - - - - - -
22/01:30am 20.8 SSE 6 9 1015.8 - 0.0 - - - - - - -
22/01:00am 19.1 SSE 6 7 1016.1 - 0.0 - - - - - - -
22/12:30am 17.0 SSE 4 5 1016.3 - 0.0 - - - - - - -
22/12:00am 17.5 ESE 4 4 1016.4 - 0.0 - - - - - - -
 
Date/Time
EST
Temp
°C
Wind Pressure Rain since
9am
mm
Weather Cloud Vis
km
Sea
Height
m
Swell
Dir  Spd
kts
Gust
kts
hPa Trend Height
m
Period
s
Dir
21/11:30pm 17.9 ESE 3 4 1016.5 - 0.0 - - - - - - -
21/11:00pm 18.2 ESE 3 4 1016.6 - 0.0 - - - - - - -
21/10:30pm 18.4 ESE 4 4 1016.6 - 0.0 - - - - - - -
21/10:00pm 18.7 E 4 5 1016.5 - 0.0 - - - - - - -
21/09:30pm 19.4 E 4 5 1016.5 - 0.0 - - - - - - -
21/09:00pm 20.1 E 4 4 1016.3 - 0.0 - - - - - - -
21/08:30pm 20.3 E 5 5 1016.1 - 0.0 - - - - - - -
21/08:00pm 20.9 E 4 5 1015.7 - 0.0 - - - - - - -
21/07:30pm 21.7 E 4 5 1015.3 - 0.0 - - - - - - -
21/07:00pm 23.1 E 5 6 1015.2 - 0.0 - - - - - - -
21/06:30pm 24.0 ESE 5 6 1015.0 - 0.0 - - - - - - -
21/06:00pm 25.4 ESE 6 8 1014.7 - 0.0 - - - - - - -
21/05:30pm 26.0 SE 7 11 1014.5 - 0.0 - - - - - - -
21/05:00pm 25.7 SSE 8 13 1014.2 - 0.0 - - - - - - -
21/04:30pm 26.3 SSE 7 11 1014.1 - 0.0 - - - - - - -
21/04:00pm 25.6 SE 9 14 1014.0 - 0.0 - - - - - - -
21/03:30pm 25.3 SSE 10 15 1014.0 - 0.0 - - - - - - -
21/03:00pm 24.7 SSE 11 17 1014.2 - 0.0 - - - - - - -
21/02:30pm 24.6 SSE 10 15 1014.6 - 0.0 - - - - - - -
21/02:00pm 24.0 SSE 10 16 1014.8 - 0.0 - - - - - - -
21/01:30pm 23.7 SSE 10 15 1015.4 - 0.0 - - - - - - -
21/01:00pm 23.9 SSE 10 16 1015.9 - 0.0 - - - - - - -
21/12:30pm 24.1 SSE 11 18 1016.1 - 0.0 - - - - - - -
21/12:00pm 24.7 SE 12 19 1016.5 - 0.0 - - - - - - -
21/11:30am 24.6 SE 11 18 1016.6 - 0.0 - - - - - - -
21/11:00am 24.0 SE 14 20 1016.8 - 0.0 - - - - - - -
21/10:30am 23.7 SE 15 22 1016.9 - 0.0 - - - - - - -
21/10:00am 23.5 SE 16 22 1017.0 - 0.0 - - - - - - -
21/09:30am 22.9 SE 15 23 1016.9 - 0.0 - - - - - - -
21/09:00am 22.1 SE 15 21 1016.9 - 0.0 - - - - - - -
21/08:30am 21.6 SE 14 23 1016.7 - 0.0 - - - - - - -
21/08:00am 21.0 SE 13 22 1016.6 - 0.0 - - - - - - -
21/07:30am 20.9 SSE 14 24 1016.2 - 0.0 - - - - - - -
21/07:00am 21.1 SSE 15 25 1015.8 - 0.0 - - - - - - -
21/06:30am 21.3 SSE 14 24 1015.6 - 0.0 - - - - - - -
21/06:00am 21.8 SSE 12 21 1015.2 - 0.0 - - - - - - -
21/05:30am 21.8 SSE 11 19 1014.9 - 0.0 - - - - - - -
21/05:00am 22.0 SSE 13 20 1014.6 - 0.0 - - - - - - -
21/04:30am 22.0 SSE 12 18 1014.6 - 0.0 - - - - - - -
21/04:00am 21.9 SSE 12 21 1014.6 - 0.0 - - - - - - -
21/03:30am 21.8 SSE 9 16 1014.7 - 0.0 - - - - - - -
21/03:00am 22.1 SSE 10 16 1014.8 - 0.0 - - - - - - -
21/02:30am 22.0 SSE 9 14 1015.0 - 0.0 - - - - - - -
21/02:00am 22.1 SSE 9 16 1015.2 - 0.0 - - - - - - -
21/01:30am 21.9 SSE 8 13 1015.2 - 0.0 - - - - - - -
21/01:00am 22.2 SSE 8 13 1015.4 - 0.0 - - - - - - -
21/12:30am 22.4 SSE 8 13 1015.3 - 0.0 - - - - - - -
21/12:00am 22.4 S 7 11 1015.4 - 0.0 - - - - - - -
 
Date/Time
EST
Temp
°C
Wind Pressure Rain since
9am
mm
Weather Cloud Vis
km
Sea
Height
m
Swell
Dir  Spd
kts
Gust
kts
hPa Trend Height
m
Period
s
Dir
20/11:30pm 22.1 S 7 10 1015.6 - 0.0 - - - - - - -
20/11:00pm 21.9 S 6 7 1015.7 - 0.0 - - - - - - -
20/10:30pm 21.2 S 6 8 1015.7 - 0.0 - - - - - - -
20/10:00pm 20.8 S 5 7 1015.8 - 0.0 - - - - - - -
20/09:30pm 20.7 S 5 7 1015.7 - 0.0 - - - - - - -
20/09:00pm 20.1 S 5 7 1015.4 - 0.0 - - - - - - -
20/08:30pm 19.6 SE 4 5 1015.2 - 0.0 - - - - - - -
20/08:00pm 20.0 ESE 4 5 1014.9 - 0.0 - - - - - - -
20/07:30pm 20.8 SE 5 5 1014.3 - 0.0 - - - - - - -
20/07:00pm 21.8 ESE 5 7 1014.1 - 0.0 - - - - - - -
20/06:30pm 22.7 SE 6 8 1013.7 - 0.0 - - - - - - -
20/06:00pm 23.6 SE 7 10 1013.3 - 0.0 - - - - - - -
20/05:30pm 24.4 SE 9 14 1013.2 - 0.0 - - - - - - -
20/05:00pm 24.7 SSE 9 14 1013.2 - 0.0 - - - - - - -
20/04:30pm 24.6 SE 11 16 1013.2 - 0.0 - - - - - - -
20/04:00pm 24.5 SE 9 14 1013.4 - 0.0 - - - - - - -
20/03:30pm 24.4 SSE 10 15 1013.5 - 0.0 - - - - - - -
20/03:00pm 23.5 SSE 11 16 1013.7 - 0.0 - - - - - - -
20/02:30pm 23.8 SSE 13 18 1014.2 - 0.0 - - - - - - -
20/02:00pm 23.4 SSE 12 20 1014.8 - 0.0 - - - - - - -
20/01:30pm 22.9 SSE 12 20 1015.2 - 0.0 - - - - - - -
20/01:00pm 22.4 SSE 13 19 1015.5 - 0.0 - - - - - - -
20/12:30pm 22.2 SSE 14 20 1016.2 - 0.0 - - - - - - -
20/12:00pm 21.8 SSE 13 20 1016.6 - 0.0 - - - - - - -
20/11:30am 21.7 SSE 13 22 1017.0 - 0.0 - - - - - - -
20/11:00am 21.4 SSE 13 21 1017.3 - 0.0 - - - - - - -
20/10:30am 20.8 SSE 15 25 1017.5 - 0.0 - - - - - - -
20/10:15am 20.9 SSE 15 25 1017.6 - 0.0 - - - - - - -
20/10:00am 20.8 SE 15 22 1017.6 - 0.0 - - - - - - -
20/09:30am 20.0 SSE 14 22 1017.5 - 0.0 - - - - - - -
20/09:00am 19.8 SSE 14 25 1017.3 - 0.0 - - - - - - -
20/08:30am 19.7 SSE 15 24 1017.0 - 0.0 - - - - - - -
20/08:04am 19.7 SSE 15 26 1016.8 - 0.0 - - - - - - -
20/08:00am 19.7 SSE 14 26 1016.7 - 0.0 - - - - - - -
20/07:30am 19.6 SSE 16 25 1016.4 - 0.0 - - - - - - -
20/07:08am 19.6 SSE 15 25 1016.3 - 0.0 - - - - - - -
20/07:00am 19.6 SE 14 23 1016.2 - 0.0 - - - - - - -
20/06:30am 19.8 SSE 15 23 1015.8 - 0.0 - - - - - - -
20/06:00am 20.1 SSE 15 26 1015.5 - 0.0 - - - - - - -
20/05:57am 20.1 SSE 15 26 1015.4 - 0.0 - - - - - - -
20/05:30am 20.1 SSE 15 24 1015.5 - 0.0 - - - - - - -
20/05:06am 20.0 SSE 15 25 1015.3 - 0.0 - - - - - - -
20/05:00am 20.1 SSE 14 23 1015.3 - 0.0 - - - - - - -
20/04:39am 20.3 SSE 15 25 1015.2 - 0.0 - - - - - - -
20/04:30am 20.3 SSE 14 23 1015.3 - 0.0 - - - - - - -
20/04:00am 20.7 SSE 17 27 1015.0 - 0.0 - - - - - - -
20/03:30am 21.2 SSE 16 26 1015.1 - 0.0 - - - - - - -
20/03:02am 21.7 SSE 15 25 1015.1 - 0.0 - - - - - - -
20/03:00am 21.7 SSE 14 25 1015.2 - 0.0 - - - - - - -
20/02:32am 22.5 SSE 15 25 1015.2 - 0.0 - - - - - - -
20/02:30am 22.5 SSE 14 25 1015.2 - 0.0 - - - - - - -
20/02:06am 22.8 SSE 15 25 1015.1 - 0.0 - - - - - - -
20/02:00am 22.8 SSE 13 21 1015.2 - 0.0 - - - - - - -
20/01:30am 23.1 SSE 13 21 1015.1 - 0.0 - - - - - - -
20/01:00am 23.2 SSE 14 21 1015.5 - 0.0 - - - - - - -
20/12:30am 23.5 SSE 15 25 1015.5 - 0.0 - - - - - - -
20/12:01am 23.6 SSE 15 26 1015.7 - 0.0 - - - - - - -
20/12:00am 23.6 SSE 16 23 1015.7 - 0.0 - - - - - - -
 
Date/Time
EST
Temp
°C
Wind Pressure Rain since
9am
mm
Weather Cloud Vis
km
Sea
Height
m
Swell
Dir  Spd
kts
Gust
kts
hPa Trend Height
m
Period
s
Dir
19/11:30pm 23.7 SE 14 22 1015.9 - 0.0 - - - - - - -
19/11:00pm 23.9 SSE 14 22 1016.2 - 0.0 - - - - - - -
19/10:30pm 23.8 SE 11 18 1016.5 - 0.0 - - - - - - -
19/10:00pm 24.0 SE 11 17 1016.5 - 0.0 - - - - - - -
19/09:30pm 24.2 SE 11 16 1016.4 - 0.0 - - - - - - -

Other Formats:

Comma delimited format used in spreadsheet applications
http://www.bom.gov.au/fwo/IDQ60701/IDQ60701.94254.axf

JavaScript Object Notation format (JSON) in row-major order
http://www.bom.gov.au/fwo/IDQ60701/IDQ60701.94254.json